createdAt,value
2019-03-06T00:00:46.636Z,5.20
2019-03-06T00:01:51.952Z,5.20
2019-03-06T00:02:55.714Z,5.20
2019-03-06T00:03:59.324Z,5.20
2019-03-06T00:05:02.988Z,5.20
2019-03-06T00:06:16.265Z,5.20
2019-03-06T00:07:12.152Z,5.20
2019-03-06T00:08:15.771Z,5.20
2019-03-06T00:09:19.393Z,5.20
2019-03-06T00:10:27.907Z,5.20
2019-03-06T00:11:31.557Z,5.20
2019-03-06T00:12:35.193Z,5.20
2019-03-06T00:13:38.792Z,5.20
2019-03-06T00:14:44.438Z,5.10
2019-03-06T00:15:47.831Z,5.10
2019-03-06T00:16:51.520Z,5.10
2019-03-06T00:17:55.260Z,5.10
2019-03-06T00:18:58.890Z,5.10
2019-03-06T00:20:02.735Z,5.10
2019-03-06T00:21:06.677Z,5.00
2019-03-06T00:22:10.305Z,5.00
2019-03-06T00:23:13.882Z,5.00
2019-03-06T00:24:17.537Z,5.00
2019-03-06T00:25:21.286Z,5.00
2019-03-06T00:26:25.039Z,5.00
2019-03-06T00:27:28.662Z,5.00
2019-03-06T00:28:32.369Z,5.00
2019-03-06T00:29:36.064Z,5.00
2019-03-06T00:30:39.678Z,5.00
2019-03-06T00:31:43.442Z,5.00
2019-03-06T00:32:47.055Z,5.00
2019-03-06T00:33:50.762Z,5.00
2019-03-06T00:34:55.248Z,5.00
2019-03-06T00:36:00.490Z,5.10
2019-03-06T00:37:04.273Z,5.10
2019-03-06T00:38:07.886Z,5.00
2019-03-06T00:39:11.690Z,5.10
2019-03-06T00:40:19.872Z,5.00
2019-03-06T00:41:25.177Z,5.00
2019-03-06T00:42:28.875Z,5.00
2019-03-06T00:43:32.505Z,5.00
2019-03-06T00:44:36.123Z,5.00
2019-03-06T00:45:39.993Z,5.00
2019-03-06T00:46:43.706Z,5.00
2019-03-06T00:47:47.317Z,4.90
2019-03-06T00:48:50.933Z,4.90
2019-03-06T00:49:54.558Z,4.90
2019-03-06T00:50:58.280Z,4.90
2019-03-06T00:52:01.933Z,5.00
2019-03-06T00:53:05.662Z,4.90
2019-03-06T00:54:09.300Z,4.80
2019-03-06T00:55:13.154Z,4.80
2019-03-06T00:56:16.824Z,4.80
2019-03-06T00:57:20.490Z,4.80
2019-03-06T00:58:25.112Z,4.80
2019-03-06T00:59:28.996Z,4.80
2019-03-06T01:00:32.751Z,4.80
2019-03-06T01:01:36.397Z,4.80
2019-03-06T01:02:40.018Z,4.80
2019-03-06T01:03:43.807Z,4.70
2019-03-06T01:04:47.437Z,4.70
2019-03-06T01:05:51.197Z,4.70
2019-03-06T01:06:54.932Z,4.80
2019-03-06T01:07:58.544Z,4.70
2019-03-06T01:09:02.206Z,4.70
2019-03-06T01:10:08.902Z,4.70
2019-03-06T01:11:12.530Z,4.80
2019-03-06T01:12:16.152Z,4.80
2019-03-06T01:13:19.739Z,4.70
2019-03-06T01:14:23.506Z,4.70
2019-03-06T01:15:27.191Z,4.70
2019-03-06T01:16:30.869Z,4.70
2019-03-06T01:17:34.690Z,4.70
2019-03-06T01:18:38.589Z,4.70
2019-03-06T01:19:42.283Z,4.70
2019-03-06T01:20:45.887Z,4.70
2019-03-06T01:21:49.492Z,4.70
2019-03-06T01:22:53.105Z,4.60
2019-03-06T01:23:56.741Z,4.60
2019-03-06T01:25:00.473Z,4.60
2019-03-06T01:26:04.276Z,4.60
2019-03-06T01:27:07.875Z,4.60
2019-03-06T01:28:11.569Z,4.50
2019-03-06T01:29:15.260Z,4.50
2019-03-06T01:30:23.074Z,4.60
2019-03-06T01:31:26.703Z,4.60
2019-03-06T01:32:30.300Z,4.50
2019-03-06T01:33:44.432Z,4.60
2019-03-06T01:34:49.692Z,4.50
2019-03-06T01:36:01.147Z,4.50
2019-03-06T01:37:06.493Z,4.60
2019-03-06T01:38:21.019Z,4.50
2019-03-06T01:39:35.447Z,4.50
2019-03-06T01:40:49.349Z,4.50
2019-03-06T01:42:00.253Z,4.50
2019-03-06T01:43:14.585Z,4.50
2019-03-06T01:44:19.826Z,4.50
2019-03-06T01:45:23.575Z,4.50
2019-03-06T01:46:27.182Z,4.40
2019-03-06T01:47:30.893Z,4.40
2019-03-06T01:48:34.508Z,4.40
2019-03-06T01:49:38.195Z,4.40
2019-03-06T01:50:41.819Z,4.40
2019-03-06T01:51:45.438Z,4.30
2019-03-06T01:52:49.141Z,4.30
2019-03-06T01:53:52.819Z,4.30
2019-03-06T01:54:56.432Z,4.30
2019-03-06T01:56:00.043Z,4.20
2019-03-06T01:57:03.655Z,4.20
2019-03-06T01:58:07.511Z,4.20
2019-03-06T01:59:11.141Z,4.20
2019-03-06T02:00:17.121Z,4.10
2019-03-06T02:01:20.683Z,4.10
2019-03-06T02:02:24.355Z,4.10
2019-03-06T02:03:28.011Z,4.10
2019-03-06T02:04:31.666Z,4.00
2019-03-06T02:05:35.362Z,4.00
2019-03-06T02:06:38.991Z,4.00
2019-03-06T02:07:43.021Z,4.00
2019-03-06T02:08:46.697Z,4.00
2019-03-06T02:09:50.337Z,4.00
2019-03-06T02:10:54.030Z,4.00
2019-03-06T02:11:57.661Z,4.00
2019-03-06T02:13:01.292Z,3.90
2019-03-06T02:14:05.006Z,3.90
2019-03-06T02:15:11.940Z,3.80
2019-03-06T02:16:15.636Z,3.80
2019-03-06T02:17:19.433Z,3.80
2019-03-06T02:18:23.244Z,3.80
2019-03-06T02:19:26.927Z,3.80
2019-03-06T02:20:30.522Z,3.80
2019-03-06T02:21:34.270Z,3.70
2019-03-06T02:22:37.896Z,3.70
2019-03-06T02:23:41.705Z,3.70
2019-03-06T02:24:45.323Z,3.70
2019-03-06T02:25:48.964Z,3.70
2019-03-06T02:26:52.738Z,3.70
2019-03-06T02:27:56.408Z,3.70
2019-03-06T02:29:00.012Z,3.70
2019-03-06T02:30:05.232Z,3.70
2019-03-06T02:31:08.910Z,3.70
2019-03-06T02:32:12.561Z,3.70
2019-03-06T02:33:16.250Z,3.70
2019-03-06T02:34:19.942Z,3.70
2019-03-06T02:35:23.649Z,3.80
2019-03-06T02:36:27.694Z,3.80
2019-03-06T02:37:31.331Z,3.80
2019-03-06T02:38:34.944Z,3.80
2019-03-06T02:39:38.586Z,3.90
2019-03-06T02:40:42.204Z,3.90
2019-03-06T02:41:45.915Z,4.00
2019-03-06T02:42:49.509Z,4.00
2019-03-06T02:43:53.163Z,4.00
2019-03-06T02:44:56.902Z,4.00
2019-03-06T02:46:00.534Z,4.00
2019-03-06T02:47:04.224Z,4.00
2019-03-06T02:48:07.887Z,4.10
2019-03-06T02:49:11.483Z,4.10
2019-03-06T02:50:19.623Z,4.10
2019-03-06T02:51:23.309Z,4.10
2019-03-06T02:52:26.953Z,4.10
2019-03-06T02:53:30.794Z,4.10
2019-03-06T02:54:34.739Z,4.10
2019-03-06T02:55:38.333Z,4.10
2019-03-06T02:56:41.955Z,4.10
2019-03-06T02:58:02.452Z,4.00
2019-03-06T02:59:07.772Z,4.10
2019-03-06T03:00:21.009Z,4.10
2019-03-06T03:01:29.278Z,4.10
2019-03-06T03:02:34.837Z,4.10
2019-03-06T03:03:46.443Z,4.10
2019-03-06T03:04:54.611Z,4.10
2019-03-06T03:06:08.942Z,4.10
2019-03-06T03:07:13.256Z,4.10
2019-03-06T03:08:16.870Z,4.10
2019-03-06T03:09:20.781Z,4.10
2019-03-06T03:10:24.528Z,4.10
2019-03-06T03:11:28.144Z,4.20
2019-03-06T03:12:31.745Z,4.20
2019-03-06T03:13:35.444Z,4.20
2019-03-06T03:14:39.068Z,4.20
2019-03-06T03:15:42.711Z,4.20
2019-03-06T03:16:46.334Z,4.30
2019-03-06T03:17:49.957Z,4.20
2019-03-06T03:18:53.656Z,4.20
2019-03-06T03:19:57.337Z,4.20
2019-03-06T03:21:00.968Z,4.20
2019-03-06T03:22:04.683Z,4.20
2019-03-06T03:23:08.303Z,4.20
2019-03-06T03:24:11.934Z,4.20
2019-03-06T03:25:15.618Z,4.20
2019-03-06T03:26:19.511Z,4.20
2019-03-06T03:27:23.131Z,4.20
2019-03-06T03:28:26.768Z,4.20
2019-03-06T03:29:30.419Z,4.10
2019-03-06T03:30:34.097Z,4.10
2019-03-06T03:31:37.700Z,4.20
2019-03-06T03:32:41.302Z,4.20
2019-03-06T03:33:44.981Z,4.20
2019-03-06T03:34:48.616Z,4.20
2019-03-06T03:35:52.276Z,4.20
2019-03-06T03:36:55.925Z,4.30
2019-03-06T03:37:59.580Z,4.30
2019-03-06T03:39:04.654Z,4.30
2019-03-06T03:40:13.885Z,4.30
2019-03-06T03:41:17.562Z,4.40
2019-03-06T03:42:21.256Z,4.40
2019-03-06T03:43:24.954Z,4.40
2019-03-06T03:44:28.884Z,4.40
2019-03-06T03:45:32.505Z,4.40
2019-03-06T03:46:36.190Z,4.40
2019-03-06T03:47:39.798Z,4.40
2019-03-06T03:48:43.429Z,4.40
2019-03-06T03:49:47.089Z,4.40
2019-03-06T03:50:50.721Z,4.40
2019-03-06T03:51:54.369Z,4.30
2019-03-06T03:52:58.009Z,4.40
2019-03-06T03:54:01.749Z,4.40
2019-03-06T03:55:11.132Z,4.30
2019-03-06T03:56:14.796Z,4.30
2019-03-06T03:57:18.708Z,4.30
2019-03-06T03:58:22.430Z,4.30
2019-03-06T03:59:26.060Z,4.40
2019-03-06T04:00:29.951Z,4.30
2019-03-06T04:01:33.611Z,4.30
2019-03-06T04:02:37.581Z,4.30
2019-03-06T04:03:41.240Z,4.30
2019-03-06T04:04:44.872Z,4.40
2019-03-06T04:05:48.486Z,4.40
2019-03-06T04:06:52.283Z,4.40
2019-03-06T04:07:55.973Z,4.40
2019-03-06T04:08:59.633Z,4.40
2019-03-06T04:10:03.616Z,4.40
2019-03-06T04:11:07.298Z,4.40
2019-03-06T04:12:10.914Z,4.40
2019-03-06T04:13:14.528Z,4.40
2019-03-06T04:14:18.155Z,4.40
2019-03-06T04:15:21.854Z,4.50
2019-03-06T04:16:25.556Z,4.50
2019-03-06T04:17:29.175Z,4.50
2019-03-06T04:18:32.953Z,4.50
2019-03-06T04:19:37.403Z,4.50
2019-03-06T04:20:41.107Z,4.50
2019-03-06T04:21:44.743Z,4.60
2019-03-06T04:22:48.412Z,4.60
2019-03-06T04:23:52.064Z,4.60
2019-03-06T04:24:55.720Z,4.60
2019-03-06T04:25:59.345Z,4.60
2019-03-06T04:27:02.979Z,4.60
2019-03-06T04:28:06.603Z,4.60
2019-03-06T04:29:10.310Z,4.60
2019-03-06T04:30:17.735Z,4.60
2019-03-06T04:31:21.387Z,4.60
2019-03-06T04:32:25.064Z,4.60
2019-03-06T04:33:28.759Z,4.60
2019-03-06T04:34:32.394Z,4.70
2019-03-06T04:35:36.045Z,4.70
2019-03-06T04:36:39.735Z,4.70
2019-03-06T04:37:43.835Z,4.70
2019-03-06T04:38:47.537Z,4.70
2019-03-06T04:39:51.277Z,4.70
2019-03-06T04:40:54.890Z,4.70
2019-03-06T04:41:58.584Z,4.70
2019-03-06T04:43:02.285Z,4.70
2019-03-06T04:44:05.911Z,4.70
2019-03-06T04:45:18.893Z,4.70
2019-03-06T04:46:22.523Z,4.70
2019-03-06T04:47:26.222Z,4.70
2019-03-06T04:48:29.832Z,4.80
2019-03-06T04:49:33.497Z,4.80
2019-03-06T04:50:37.118Z,4.80
2019-03-06T04:51:40.810Z,4.80
2019-03-06T04:52:44.524Z,4.80
2019-03-06T04:53:48.190Z,4.80
2019-03-06T04:54:51.814Z,4.80
2019-03-06T04:55:55.421Z,4.90
2019-03-06T04:56:59.142Z,4.80
2019-03-06T04:58:02.998Z,4.90
2019-03-06T04:59:06.646Z,4.90
2019-03-06T05:00:16.141Z,4.90
2019-03-06T05:01:19.761Z,4.90
2019-03-06T05:02:23.450Z,4.90
2019-03-06T05:03:27.083Z,4.80
2019-03-06T05:04:30.702Z,4.90
2019-03-06T05:05:34.373Z,4.90
2019-03-06T05:06:38.078Z,4.90
2019-03-06T05:07:41.740Z,4.90
2019-03-06T05:08:45.346Z,5.00
2019-03-06T05:09:48.976Z,5.00
2019-03-06T05:10:52.653Z,5.00
2019-03-06T05:11:56.274Z,5.00
2019-03-06T05:12:59.898Z,5.00
2019-03-06T05:14:03.584Z,5.00
2019-03-06T05:15:10.284Z,5.00
2019-03-06T05:16:13.967Z,5.00
2019-03-06T05:17:28.779Z,5.00
2019-03-06T05:18:34.051Z,5.00
2019-03-06T05:19:37.872Z,5.00
2019-03-06T05:20:41.720Z,5.00
2019-03-06T05:21:45.399Z,5.00
2019-03-06T05:22:49.111Z,5.00
2019-03-06T05:23:52.791Z,5.00
2019-03-06T05:24:56.427Z,5.00
2019-03-06T05:26:00.054Z,5.00
2019-03-06T05:27:03.700Z,5.10
2019-03-06T05:28:07.323Z,5.00
2019-03-06T05:29:10.981Z,5.10
2019-03-06T05:30:16.124Z,5.10
2019-03-06T05:31:19.775Z,5.10
2019-03-06T05:32:36.411Z,5.10
2019-03-06T05:33:40.068Z,5.10
2019-03-06T05:34:43.686Z,5.10
2019-03-06T05:36:06.763Z,5.10
2019-03-06T05:37:46.529Z,5.10
2019-03-06T05:38:53.226Z,5.10
2019-03-06T05:39:56.888Z,5.10
2019-03-06T05:41:00.724Z,5.20
2019-03-06T05:42:04.585Z,5.20
2019-03-06T05:43:08.243Z,5.20
2019-03-06T05:44:11.864Z,5.20
2019-03-06T05:45:15.957Z,5.20
2019-03-06T05:46:19.536Z,5.20
2019-03-06T05:47:23.151Z,5.20
2019-03-06T05:48:26.819Z,5.20
2019-03-06T05:49:30.458Z,5.20
2019-03-06T05:50:34.083Z,5.30
2019-03-06T05:51:37.763Z,5.40
2019-03-06T05:52:41.452Z,5.40
2019-03-06T05:53:45.059Z,5.40
2019-03-06T05:54:48.697Z,5.40
2019-03-06T05:55:52.308Z,5.40
2019-03-06T05:56:55.942Z,5.40
2019-03-06T05:57:59.609Z,5.40
2019-03-06T05:59:03.280Z,5.50
2019-03-06T06:00:19.044Z,5.50
2019-03-06T06:01:22.699Z,5.50
2019-03-06T06:02:27.949Z,5.50
2019-03-06T06:03:31.597Z,5.50
2019-03-06T06:04:35.250Z,5.50
2019-03-06T06:05:38.980Z,5.60
2019-03-06T06:06:42.612Z,5.60
2019-03-06T06:07:46.279Z,5.60
2019-03-06T06:08:49.904Z,5.60
2019-03-06T06:09:53.516Z,5.60
2019-03-06T06:10:57.150Z,5.60
2019-03-06T06:12:00.803Z,5.60
2019-03-06T06:13:04.475Z,5.60
2019-03-06T06:14:08.122Z,5.60
2019-03-06T06:15:14.235Z,5.70
2019-03-06T06:16:17.858Z,5.70
2019-03-06T06:17:21.541Z,5.70
2019-03-06T06:18:25.132Z,5.70
2019-03-06T06:19:28.807Z,5.70
2019-03-06T06:20:32.496Z,5.70
2019-03-06T06:21:40.385Z,5.80
2019-03-06T06:22:51.707Z,5.80
2019-03-06T06:23:56.996Z,5.80
2019-03-06T06:25:00.621Z,5.80
2019-03-06T06:26:04.604Z,5.80
2019-03-06T06:27:08.204Z,5.80
2019-03-06T06:28:11.874Z,5.80
2019-03-06T06:29:15.494Z,5.80
2019-03-06T06:30:19.389Z,5.80
2019-03-06T06:31:23.016Z,5.80
2019-03-06T06:32:26.631Z,5.80
2019-03-06T06:33:30.282Z,5.80
2019-03-06T06:34:33.910Z,5.80
2019-03-06T06:35:37.557Z,5.90
2019-03-06T06:36:41.233Z,5.90
2019-03-06T06:37:44.938Z,5.90
2019-03-06T06:38:48.591Z,5.90
2019-03-06T06:39:52.280Z,6.00
2019-03-06T06:40:55.877Z,6.00
2019-03-06T06:41:59.496Z,6.00
2019-03-06T06:43:03.302Z,6.10
2019-03-06T06:44:07.330Z,6.00
2019-03-06T06:45:13.191Z,6.10
2019-03-06T06:46:16.801Z,6.00
2019-03-06T06:47:20.404Z,6.00
2019-03-06T06:48:26.567Z,6.00
2019-03-06T06:49:30.278Z,6.10
2019-03-06T06:50:33.935Z,6.10
2019-03-06T06:51:57.113Z,6.20
2019-03-06T06:53:21.943Z,6.20
2019-03-06T06:54:43.121Z,6.20
2019-03-06T06:55:52.512Z,6.20
2019-03-06T06:56:59.265Z,6.20
2019-03-06T06:58:33.019Z,6.30
2019-03-06T06:59:42.524Z,6.30
2019-03-06T07:01:02.577Z,6.30
2019-03-06T07:02:46.240Z,6.30
2019-03-06T07:04:18.533Z,6.30
2019-03-06T07:05:23.799Z,6.40
2019-03-06T07:06:41.308Z,6.40
2019-03-06T07:07:52.791Z,6.40
2019-03-06T07:09:14.241Z,6.40
2019-03-06T07:10:36.817Z,6.50
2019-03-06T07:11:42.066Z,6.50
2019-03-06T07:12:49.898Z,6.50
2019-03-06T07:14:00.913Z,6.50
2019-03-06T07:15:10.221Z,6.60
2019-03-06T07:16:33.710Z,6.60
2019-03-06T07:17:47.713Z,6.60
2019-03-06T07:19:11.223Z,6.60
2019-03-06T07:20:19.092Z,6.70
2019-03-06T07:21:24.573Z,6.70
2019-03-06T07:22:32.868Z,6.70
2019-03-06T07:23:41.471Z,6.80
2019-03-06T07:24:55.686Z,6.80
2019-03-06T07:26:16.881Z,6.80
2019-03-06T07:27:24.621Z,6.80
2019-03-06T07:28:32.555Z,6.80
2019-03-06T07:29:40.631Z,6.80
2019-03-06T07:30:57.831Z,6.80
2019-03-06T07:32:09.203Z,6.80
2019-03-06T07:33:14.477Z,6.80
2019-03-06T07:34:34.888Z,6.90
2019-03-06T07:36:04.634Z,7.00
2019-03-06T07:37:12.302Z,7.00
2019-03-06T07:38:15.931Z,7.00
2019-03-06T07:39:22.293Z,7.00
2019-03-06T07:40:27.225Z,7.00
2019-03-06T07:41:35.248Z,7.00
2019-03-06T07:42:40.531Z,7.10
2019-03-06T07:43:55.310Z,7.10
2019-03-06T07:45:50.980Z,7.10
2019-03-06T07:46:59.573Z,7.10
2019-03-06T07:48:23.284Z,7.10
2019-03-06T07:49:34.177Z,7.10
2019-03-06T07:50:39.471Z,7.00
2019-03-06T07:51:56.573Z,7.10
2019-03-06T07:53:47.077Z,7.10
2019-03-06T07:54:52.317Z,7.10
2019-03-06T07:55:57.587Z,7.20
2019-03-06T07:57:05.793Z,7.20
2019-03-06T07:58:47.725Z,7.20
2019-03-06T07:59:51.381Z,7.20
2019-03-06T08:00:55.100Z,7.20
2019-03-06T08:02:01.723Z,7.20
2019-03-06T08:03:06.851Z,7.20
2019-03-06T08:04:12.332Z,7.20
2019-03-06T08:05:16.077Z,7.20
2019-03-06T08:06:19.722Z,7.30
2019-03-06T08:07:23.409Z,7.30
2019-03-06T08:08:27.246Z,7.30
2019-03-06T08:09:31.159Z,7.40
2019-03-06T08:10:35.071Z,7.40
2019-03-06T08:11:46.164Z,7.40
2019-03-06T08:13:00.332Z,7.50
2019-03-06T08:14:05.741Z,7.50
2019-03-06T08:15:14.838Z,7.70
2019-03-06T08:16:20.185Z,7.70
2019-03-06T08:17:25.761Z,7.80
2019-03-06T08:18:31.311Z,7.80
2019-03-06T08:19:52.794Z,7.90
2019-03-06T08:21:00.480Z,8.00
2019-03-06T08:22:05.813Z,8.00
2019-03-06T08:23:11.084Z,8.10
2019-03-06T08:24:22.312Z,8.20
2019-03-06T08:25:36.453Z,8.30
2019-03-06T08:26:40.164Z,8.30
2019-03-06T08:27:43.812Z,8.30
2019-03-06T08:28:47.411Z,8.30
2019-03-06T08:29:51.071Z,8.30
2019-03-06T08:31:15.100Z,8.30
2019-03-06T08:32:20.583Z,8.20
2019-03-06T08:33:24.334Z,8.20
2019-03-06T08:34:28.001Z,8.20
2019-03-06T08:35:31.604Z,8.20
2019-03-06T08:36:35.258Z,8.30
2019-03-06T08:37:39.173Z,8.30
2019-03-06T08:38:42.775Z,8.40
2019-03-06T08:39:46.495Z,8.40
2019-03-06T08:40:50.234Z,8.50
2019-03-06T08:41:53.929Z,8.50
2019-03-06T08:42:57.673Z,8.40
2019-03-06T08:44:01.293Z,8.30
2019-03-06T08:45:14.322Z,8.30
2019-03-06T08:46:19.577Z,8.30
2019-03-06T08:47:27.477Z,8.30
2019-03-06T08:48:32.770Z,8.30
2019-03-06T08:49:47.356Z,8.30
2019-03-06T08:50:58.191Z,8.30
2019-03-06T08:52:12.492Z,8.30
2019-03-06T08:53:20.734Z,8.30
2019-03-06T08:54:26.102Z,8.30
2019-03-06T08:55:33.850Z,8.30
2019-03-06T08:56:55.150Z,8.20
2019-03-06T08:58:06.023Z,8.20
2019-03-06T08:59:13.892Z,8.30
2019-03-06T09:00:22.221Z,8.30
2019-03-06T09:01:44.372Z,8.30
2019-03-06T09:03:03.304Z,8.40
2019-03-06T09:04:11.858Z,8.40
2019-03-06T09:05:19.628Z,8.40
2019-03-06T09:06:30.852Z,8.40
2019-03-06T09:07:38.778Z,8.40
2019-03-06T09:08:46.835Z,8.40
2019-03-06T09:10:10.233Z,8.40
2019-03-06T09:11:30.668Z,8.40
2019-03-06T09:12:36.121Z,8.40
2019-03-06T09:13:44.439Z,8.50
2019-03-06T09:14:50.081Z,8.50
2019-03-06T09:16:07.503Z,8.60
2019-03-06T09:17:18.774Z,8.60
2019-03-06T09:18:29.949Z,8.60
2019-03-06T09:19:35.209Z,8.70
2019-03-06T09:20:41.179Z,8.70
2019-03-06T09:21:49.106Z,8.70
2019-03-06T09:22:54.444Z,8.80
2019-03-06T09:24:14.538Z,8.80
2019-03-06T09:25:35.136Z,8.80
2019-03-06T09:26:40.565Z,8.80
2019-03-06T09:27:54.660Z,8.90
2019-03-06T09:29:08.917Z,8.90
2019-03-06T09:30:26.866Z,8.90
2019-03-06T09:31:35.158Z,9.00
2019-03-06T09:32:46.546Z,9.00
2019-03-06T09:33:51.803Z,9.10
2019-03-06T09:34:57.118Z,9.10
2019-03-06T09:36:05.099Z,9.20
2019-03-06T09:37:26.463Z,9.40
2019-03-06T09:38:40.657Z,9.60
2019-03-06T09:39:48.383Z,9.70
2019-03-06T09:41:05.605Z,9.90
2019-03-06T09:42:19.695Z,10.00
2019-03-06T09:43:24.988Z,10.10
2019-03-06T09:44:30.331Z,10.10
2019-03-06T09:45:35.587Z,10.30
2019-03-06T09:46:59.051Z,10.30
2019-03-06T09:48:10.447Z,10.40
2019-03-06T09:49:21.278Z,10.40
2019-03-06T09:50:38.497Z,10.30
2019-03-06T09:51:55.811Z,10.40
2019-03-06T09:53:19.463Z,10.20
2019-03-06T09:54:41.163Z,10.10
2019-03-06T09:55:46.442Z,9.90
2019-03-06T09:57:08.088Z,9.90
2019-03-06T09:58:19.061Z,9.90
2019-03-06T09:59:24.431Z,9.90
2019-03-06T10:00:29.727Z,9.90
2019-03-06T10:01:43.725Z,9.90
2019-03-06T10:02:49.036Z,10.10
2019-03-06T10:04:12.245Z,10.20
2019-03-06T10:05:20.128Z,10.30
2019-03-06T10:06:41.401Z,10.50
2019-03-06T10:07:55.853Z,10.50
2019-03-06T10:09:13.273Z,10.40
2019-03-06T10:10:21.360Z,10.30
2019-03-06T10:11:35.540Z,10.30
2019-03-06T10:12:47.733Z,10.30
2019-03-06T10:13:59.136Z,10.40
2019-03-06T10:15:07.471Z,10.50
2019-03-06T10:16:15.834Z,10.60
2019-03-06T10:17:21.074Z,10.80
2019-03-06T10:18:31.977Z,10.80
2019-03-06T10:19:37.311Z,10.80
2019-03-06T10:20:40.914Z,10.80
2019-03-06T10:21:44.552Z,10.80
2019-03-06T10:22:49.003Z,10.80
2019-03-06T10:23:52.774Z,10.80
2019-03-06T10:24:56.674Z,10.90
2019-03-06T10:26:00.367Z,11.10
2019-03-06T10:27:04.347Z,11.10
2019-03-06T10:28:08.308Z,11.30
2019-03-06T10:29:11.913Z,11.30
2019-03-06T10:30:18.657Z,11.50
2019-03-06T10:31:22.136Z,11.70
2019-03-06T10:32:25.899Z,11.80
2019-03-06T10:33:29.646Z,12.00
2019-03-06T10:34:33.370Z,12.10
2019-03-06T10:35:37.235Z,12.00
2019-03-06T10:36:40.965Z,12.10
2019-03-06T10:37:44.685Z,12.10
2019-03-06T10:38:48.344Z,12.10
2019-03-06T10:39:52.330Z,11.90
2019-03-06T10:40:56.016Z,11.80
2019-03-06T10:41:59.667Z,11.70
2019-03-06T10:43:03.298Z,11.60
2019-03-06T10:44:07.013Z,11.70
2019-03-06T10:45:11.682Z,11.90
2019-03-06T10:46:15.397Z,12.00
2019-03-06T10:47:19.005Z,12.20
2019-03-06T10:48:22.848Z,12.10
2019-03-06T10:49:26.517Z,12.20
2019-03-06T10:50:31.035Z,12.40
2019-03-06T10:51:35.298Z,12.60
2019-03-06T10:52:38.937Z,12.60
2019-03-06T10:53:43.574Z,12.70
2019-03-06T10:54:47.532Z,12.70
2019-03-06T10:55:51.364Z,12.60
2019-03-06T10:56:55.156Z,12.40
2019-03-06T10:57:58.933Z,12.40
2019-03-06T10:59:02.874Z,12.40
2019-03-06T11:00:09.582Z,12.30
2019-03-06T11:01:13.423Z,12.20
2019-03-06T11:02:17.092Z,12.00
2019-03-06T11:03:21.620Z,12.10
2019-03-06T11:04:32.499Z,12.00
2019-03-06T11:05:36.523Z,12.00
2019-03-06T11:06:40.519Z,12.10
2019-03-06T11:07:44.367Z,12.10
2019-03-06T11:08:48.357Z,12.10
2019-03-06T11:09:52.212Z,12.20
2019-03-06T11:10:56.042Z,12.30
2019-03-06T11:11:59.880Z,12.50
2019-03-06T11:13:08.494Z,12.70
2019-03-06T11:14:12.439Z,12.80
2019-03-06T11:15:18.900Z,12.90
2019-03-06T11:16:22.796Z,12.70
2019-03-06T11:17:26.723Z,12.70
2019-03-06T11:18:30.551Z,12.70
2019-03-06T11:19:34.283Z,12.60
2019-03-06T11:20:38.234Z,12.50
2019-03-06T11:21:42.183Z,12.30
2019-03-06T11:22:45.961Z,12.30
2019-03-06T11:23:49.711Z,12.20
2019-03-06T11:24:53.436Z,12.20
2019-03-06T11:25:57.132Z,12.20
2019-03-06T11:27:00.803Z,12.30
2019-03-06T11:28:07.188Z,12.00
2019-03-06T11:29:11.326Z,12.00
2019-03-06T11:30:18.053Z,12.00
2019-03-06T11:31:21.827Z,12.00
2019-03-06T11:32:26.381Z,12.00
2019-03-06T11:33:30.037Z,12.10
2019-03-06T11:34:33.786Z,12.00
2019-03-06T11:35:38.278Z,12.10
2019-03-06T11:36:42.138Z,12.10
2019-03-06T11:37:45.744Z,12.20
2019-03-06T11:38:49.375Z,12.30
2019-03-06T11:39:53.158Z,12.40
2019-03-06T11:40:57.682Z,12.60
2019-03-06T11:42:01.358Z,12.80
2019-03-06T11:43:06.661Z,12.90
2019-03-06T11:44:10.730Z,12.90
2019-03-06T11:45:18.852Z,12.90
2019-03-06T11:46:22.613Z,13.00
2019-03-06T11:47:26.368Z,13.10
2019-03-06T11:48:30.195Z,13.20
2019-03-06T11:49:33.863Z,13.40
2019-03-06T11:50:40.783Z,13.50
2019-03-06T11:51:42.876Z,13.60
2019-03-06T11:52:46.659Z,13.80
2019-03-06T11:53:50.401Z,13.80
2019-03-06T11:54:54.019Z,13.90
2019-03-06T11:55:57.768Z,14.00
2019-03-06T11:57:01.497Z,14.20
2019-03-06T11:58:06.740Z,14.40
2019-03-06T11:59:10.463Z,14.40
2019-03-06T12:00:24.697Z,14.60
2019-03-06T12:01:29.401Z,14.50
2019-03-06T12:02:33.062Z,14.50
2019-03-06T12:03:38.291Z,14.70
2019-03-06T12:04:41.951Z,14.70
2019-03-06T12:05:45.862Z,14.80
2019-03-06T12:06:49.543Z,14.60
2019-03-06T12:07:53.211Z,14.40
2019-03-06T12:08:57.107Z,14.30
2019-03-06T12:10:00.699Z,14.20
2019-03-06T12:11:04.767Z,14.40
2019-03-06T12:12:08.413Z,14.60
2019-03-06T12:13:13.981Z,14.80
2019-03-06T12:14:17.586Z,15.00
2019-03-06T12:15:21.304Z,15.40
2019-03-06T12:16:25.013Z,15.50
2019-03-06T12:17:28.731Z,15.50
2019-03-06T12:18:34.117Z,15.50
2019-03-06T12:19:37.896Z,15.30
2019-03-06T12:20:41.625Z,15.00
2019-03-06T12:21:45.290Z,14.90
2019-03-06T12:22:49.020Z,14.70
2019-03-06T12:23:53.084Z,14.60
2019-03-06T12:24:56.787Z,14.60
2019-03-06T12:26:00.440Z,14.50
2019-03-06T12:27:04.150Z,14.50
2019-03-06T12:28:10.359Z,14.20
2019-03-06T12:29:14.033Z,13.90
2019-03-06T12:30:18.875Z,14.00
2019-03-06T12:31:22.500Z,13.90
2019-03-06T12:32:27.245Z,14.00
2019-03-06T12:33:31.526Z,14.00
2019-03-06T12:34:35.139Z,14.00
2019-03-06T12:35:38.893Z,14.10
2019-03-06T12:36:42.649Z,14.10
2019-03-06T12:37:47.236Z,14.00
2019-03-06T12:38:50.991Z,14.00
2019-03-06T12:39:54.731Z,13.90
2019-03-06T12:40:58.584Z,13.90
2019-03-06T12:42:02.241Z,13.60
2019-03-06T12:43:06.090Z,13.60
2019-03-06T12:44:10.664Z,13.40
2019-03-06T12:45:18.508Z,13.20
2019-03-06T12:46:24.066Z,13.20
2019-03-06T12:47:28.423Z,13.20
2019-03-06T12:48:33.396Z,13.10
2019-03-06T12:49:37.029Z,13.00
2019-03-06T12:50:41.398Z,13.00
2019-03-06T12:51:53.820Z,13.00
2019-03-06T12:52:50.571Z,13.10
2019-03-06T12:53:54.302Z,13.20
2019-03-06T12:54:57.984Z,13.30
2019-03-06T12:56:01.614Z,13.50
2019-03-06T12:57:05.836Z,13.50
2019-03-06T12:58:09.636Z,13.70
2019-03-06T12:59:13.473Z,13.90
2019-03-06T13:00:24.988Z,14.10
2019-03-06T13:01:28.864Z,14.20
2019-03-06T13:02:32.553Z,14.10
2019-03-06T13:03:36.219Z,14.20
2019-03-06T13:04:41.239Z,14.20
2019-03-06T13:05:45.155Z,14.20
2019-03-06T13:06:48.735Z,14.20
2019-03-06T13:07:52.604Z,14.20
2019-03-06T13:08:57.122Z,14.20
2019-03-06T13:10:00.749Z,14.20
2019-03-06T13:11:04.565Z,14.20
2019-03-06T13:12:08.273Z,14.20
2019-03-06T13:13:12.059Z,14.20
2019-03-06T13:14:15.721Z,14.30
2019-03-06T13:15:24.272Z,14.20
2019-03-06T13:16:28.387Z,14.20
2019-03-06T13:17:32.401Z,14.30
2019-03-06T13:18:36.012Z,14.30
2019-03-06T13:19:39.732Z,14.30
2019-03-06T13:20:43.335Z,14.20
2019-03-06T13:21:47.086Z,14.20
2019-03-06T13:22:51.978Z,14.10
2019-03-06T13:23:55.740Z,14.20
2019-03-06T13:24:59.356Z,14.20
2019-03-06T13:26:10.017Z,14.10
2019-03-06T13:27:08.426Z,14.00
2019-03-06T13:28:12.031Z,13.90
2019-03-06T13:29:15.642Z,13.80
2019-03-06T13:30:22.373Z,13.70
2019-03-06T13:31:26.062Z,13.70
2019-03-06T13:32:34.446Z,13.70
2019-03-06T13:33:39.800Z,13.80
2019-03-06T13:34:50.400Z,14.00
2019-03-06T13:35:48.996Z,14.10
2019-03-06T13:36:52.729Z,14.10
2019-03-06T13:37:56.365Z,14.10
2019-03-06T13:39:06.435Z,14.00
2019-03-06T13:40:06.581Z,14.00
2019-03-06T13:41:10.266Z,13.90
2019-03-06T13:42:13.995Z,13.80
2019-03-06T13:43:17.634Z,13.80
2019-03-06T13:44:21.230Z,13.80
2019-03-06T13:45:24.988Z,13.70
2019-03-06T13:46:28.670Z,13.70
2019-03-06T13:47:32.420Z,13.70
2019-03-06T13:48:36.045Z,13.60
2019-03-06T13:49:39.920Z,13.60
2019-03-06T13:50:43.577Z,13.60
2019-03-06T13:51:47.201Z,13.60
2019-03-06T13:52:50.931Z,13.60
2019-03-06T13:53:56.587Z,13.60
2019-03-06T13:54:59.929Z,13.50
2019-03-06T13:56:03.840Z,13.50
2019-03-06T13:57:08.046Z,13.50
2019-03-06T13:58:11.754Z,13.60
2019-03-06T13:59:15.418Z,13.60
2019-03-06T14:00:23.794Z,13.80
2019-03-06T14:01:27.450Z,13.90
2019-03-06T14:02:31.130Z,14.20
2019-03-06T14:03:34.876Z,14.40
2019-03-06T14:04:38.764Z,14.50
2019-03-06T14:05:42.657Z,14.50
2019-03-06T14:06:46.268Z,14.60
2019-03-06T14:07:56.258Z,14.70
2019-03-06T14:08:55.363Z,14.70
2019-03-06T14:09:58.983Z,14.60
2019-03-06T14:11:02.655Z,14.40
2019-03-06T14:12:06.393Z,14.40
2019-03-06T14:13:09.993Z,14.20
2019-03-06T14:14:13.705Z,14.10
2019-03-06T14:15:18.186Z,13.90
2019-03-06T14:16:21.873Z,13.80
2019-03-06T14:17:25.513Z,13.70
2019-03-06T14:18:29.199Z,13.70
2019-03-06T14:19:32.993Z,13.80
2019-03-06T14:20:36.861Z,13.80
2019-03-06T14:21:40.541Z,13.80
2019-03-06T14:22:44.276Z,13.80
2019-03-06T14:23:48.020Z,13.80
2019-03-06T14:24:51.643Z,13.90
2019-03-06T14:25:55.325Z,13.90
2019-03-06T14:26:58.981Z,14.00
2019-03-06T14:28:02.592Z,14.00
2019-03-06T14:29:06.378Z,14.00